Time;durP1;ratioP1;P1;durP2;ratioP2;P2;SDS_P1;SDS_P2;PMS_P1;PMS_P2;Temp;Humidity;BMP_temperature;BMP_pressure;BME280_temperature;BME280_humidity;BME280_pressure;Samples;Min_cycle;Max_cycle;Signal;HPM_P1;HPM_P2
2023/11/09 00:00:29;;;;;;;10.07;4.80;;;11.40;99.90;;;;;;4913445;28;37813;-75
2023/11/09 00:02:55;;;;;;;11.67;5.47;;;11.40;99.90;;;;;;4912487;29;36680;-75
2023/11/09 00:05:22;;;;;;;7.27;5.10;;;11.30;99.90;;;;;;4911462;29;39028;-75
2023/11/09 00:07:48;;;;;;;9.65;5.47;;;11.30;99.90;;;;;;4923951;28;38271;-75
2023/11/09 00:10:14;;;;;;;10.18;6.40;;;11.40;99.90;;;;;;4914182;29;36813;-74
2023/11/09 00:12:41;;;;;;;8.43;5.72;;;11.40;99.90;;;;;;4914503;28;37162;-75
2023/11/09 00:15:08;;;;;;;6.53;5.38;;;11.30;99.90;;;;;;4912639;29;37685;-75
2023/11/09 00:17:34;;;;;;;9.73;6.53;;;11.30;99.90;;;;;;4910133;29;38657;-75
2023/11/09 00:20:00;;;;;;;8.50;6.05;;;11.40;99.90;;;;;;4927107;29;38363;-75
2023/11/09 00:22:26;;;;;;;8.23;6.80;;;11.30;99.90;;;;;;4909926;29;37596;-75
2023/11/09 00:24:52;;;;;;;13.60;8.13;;;11.30;99.90;;;;;;4911775;29;38521;-75
2023/11/09 00:27:19;;;;;;;11.47;7.00;;;11.40;99.90;;;;;;4920136;29;37214;-74
2023/11/09 00:29:45;;;;;;;14.52;7.35;;;11.40;99.90;;;;;;4910633;28;38112;-75
2023/11/09 00:32:12;;;;;;;10.93;8.13;;;11.40;99.90;;;;;;4908509;29;36259;-76
2023/11/09 00:34:38;;;;;;;12.70;9.03;;;11.40;99.90;;;;;;4914639;29;38755;-75
2023/11/09 00:37:04;;;;;;;15.90;8.95;;;11.40;99.90;;;;;;4914126;28;37838;-75
2023/11/09 00:39:31;;;;;;;11.23;7.57;;;11.40;99.90;;;;;;4913377;29;37550;-75
2023/11/09 00:41:57;;;;;;;13.13;7.40;;;11.40;99.90;;;;;;4913690;29;37789;-75
2023/11/09 00:44:23;;;;;;;9.17;7.10;;;11.40;99.90;;;;;;4922045;29;38525;-75
2023/11/09 00:46:49;;;;;;;11.07;6.50;;;11.40;99.90;;;;;;4911919;29;38179;-75
2023/11/09 00:49:16;;;;;;;9.10;5.65;;;11.40;99.90;;;;;;4912535;29;36992;-75
2023/11/09 00:51:42;;;;;;;9.43;7.43;;;11.40;99.90;;;;;;4914700;29;37373;-75
2023/11/09 00:54:09;;;;;;;11.43;6.80;;;11.40;99.90;;;;;;4914126;29;39470;-75
2023/11/09 00:56:35;;;;;;;9.10;6.00;;;11.40;99.90;;;;;;4911049;29;38759;-74
2023/11/09 00:59:03;;;;;;;8.57;6.32;;;11.40;99.90;;;;;;4911176;29;37740;-75
2023/11/09 01:01:30;;;;;;;9.40;7.70;;;11.40;99.90;;;;;;4910698;28;49445;-75
2023/11/09 01:03:56;;;;;;;12.73;9.43;;;11.40;99.90;;;;;;4910006;29;37601;-75
2023/11/09 01:06:22;;;;;;;14.97;8.87;;;11.40;99.90;;;;;;4911221;29;37375;-76
2023/11/09 01:08:48;;;;;;;10.63;5.60;;;11.40;99.90;;;;;;4915647;29;38726;-75
2023/11/09 01:11:25;;;;;;;4.32;3.78;;;11.40;99.90;;;;;;4911749;29;36099;-75
2023/11/09 01:13:54;;;;;;;6.67;1.90;;;11.30;99.90;;;;;;4908114;29;37246;-75
2023/11/09 01:16:21;;;;;;;6.17;1.90;;;11.20;99.90;;;;;;4904832;29;37674;-75
2023/11/09 01:18:47;;;;;;;6.55;2.25;;;11.10;99.90;;;;;;4909137;29;37521;-75
2023/11/09 01:21:14;;;;;;;7.35;2.20;;;11.00;99.90;;;;;;4924349;29;35965;-75
2023/11/09 01:23:40;;;;;;;4.80;1.90;;;11.00;99.90;;;;;;4907948;29;39366;-75
2023/11/09 01:26:13;;;;;;;7.20;2.20;;;11.00;99.90;;;;;;4909553;28;38241;-75
2023/11/09 01:28:39;;;;;;;7.30;1.80;;;11.00;99.90;;;;;;4907115;29;39784;-75
2023/11/09 01:31:06;;;;;;;3.40;0.95;;;11.00;99.90;;;;;;4909692;29;37920;-75
2023/11/09 01:33:32;;;;;;;2.87;1.10;;;10.90;99.90;;;;;;4913288;29;39311;-75
2023/11/09 01:35:58;;;;;;;3.67;0.97;;;10.80;99.90;;;;;;4913152;29;38592;-75
2023/11/09 01:38:25;;;;;;;2.70;1.33;;;10.80;99.90;;;;;;4912095;29;37891;-75
2023/11/09 01:40:54;;;;;;;3.93;1.20;;;10.80;99.90;;;;;;4907047;29;35912;-75
2023/11/09 01:43:21;;;;;;;2.90;0.93;;;10.90;99.90;;;;;;4905176;29;40734;-75
2023/11/09 01:45:51;;;;;;;4.53;0.77;;;10.90;99.90;;;;;;4908629;29;38514;-75
2023/11/09 01:48:21;;;;;;;3.53;1.00;;;10.90;99.90;;;;;;4910918;29;38300;-75
2023/11/09 01:50:48;;;;;;;2.93;0.73;;;10.90;99.90;;;;;;4910514;29;38689;-75
2023/11/09 01:53:14;;;;;;;2.47;0.93;;;10.80;99.90;;;;;;4912077;28;38646;-75
2023/11/09 01:55:40;;;;;;;2.13;0.90;;;10.80;99.90;;;;;;4916581;29;38304;-75
2023/11/09 01:58:07;;;;;;;4.67;1.50;;;10.80;99.90;;;;;;4913695;29;37861;-75
2023/11/09 02:03:11;;;;;;;3.50;1.17;;;10.90;99.90;;;;;;5309533;23;20078;-75
2023/11/09 02:05:38;;;;;;;2.13;1.08;;;10.90;99.90;;;;;;4948326;28;38462;-75
2023/11/09 02:08:05;;;;;;;3.22;1.40;;;10.80;99.90;;;;;;4969558;28;38108;-76
2023/11/09 02:10:34;;;;;;;4.13;1.48;;;10.90;99.90;;;;;;4960269;28;37048;-76
2023/11/09 02:13:01;;;;;;;4.37;1.83;;;10.80;99.90;;;;;;4967062;28;37883;-75
2023/11/09 02:15:28;;;;;;;5.88;2.80;;;10.90;99.90;;;;;;4968250;28;40328;-75
2023/11/09 02:17:55;;;;;;;6.17;3.27;;;10.90;99.90;;;;;;4947037;28;38628;-75
2023/11/09 02:20:22;;;;;;;8.48;4.55;;;10.80;99.90;;;;;;4945026;28;38765;-74
2023/11/09 02:22:51;;;;;;;7.17;4.53;;;10.80;99.90;;;;;;4963339;28;38657;-75
2023/11/09 02:25:19;;;;;;;7.27;4.57;;;10.80;99.90;;;;;;4943531;28;37291;-75
2023/11/09 02:27:45;;;;;;;9.57;5.30;;;10.80;99.90;;;;;;4968189;28;37474;-75
2023/11/09 02:30:12;;;;;;;7.18;5.05;;;10.70;99.90;;;;;;4948893;28;37691;-76
2023/11/09 02:32:38;;;;;;;10.97;6.77;;;10.70;99.90;;;;;;4955048;28;38798;-76
2023/11/09 02:35:05;;;;;;;9.40;4.77;;;10.80;99.90;;;;;;4953128;28;39165;-77
2023/11/09 02:37:31;;;;;;;11.00;6.07;;;10.70;99.90;;;;;;4957960;28;39269;-75
2023/11/09 02:39:58;;;;;;;8.98;4.63;;;10.70;99.90;;;;;;4946208;28;38879;-76
2023/11/09 02:42:24;;;;;;;9.85;5.22;;;10.80;99.90;;;;;;4941377;28;39925;-76
2023/11/09 02:44:50;;;;;;;10.80;5.93;;;10.80;99.90;;;;;;4953096;28;38669;-76
2023/11/09 02:47:16;;;;;;;8.10;6.03;;;10.80;99.90;;;;;;4955455;28;38672;-76
2023/11/09 02:49:42;;;;;;;13.02;6.13;;;10.80;99.90;;;;;;4971971;28;37316;-76
2023/11/09 02:52:09;;;;;;;7.97;4.90;;;10.70;99.90;;;;;;4970206;28;39085;-77
2023/11/09 02:54:37;;;;;;;7.70;3.92;;;10.70;99.90;;;;;;4950417;28;38070;-76
2023/11/09 02:57:04;;;;;;;11.63;6.73;;;10.70;99.90;;;;;;4969065;28;38252;-77
2023/11/09 02:59:31;;;;;;;8.47;4.50;;;10.70;99.90;;;;;;4949583;28;36268;-77
2023/11/09 03:01:57;;;;;;;12.50;6.32;;;10.70;99.90;;;;;;4944066;28;37741;-76
2023/11/09 03:04:23;;;;;;;13.63;6.07;;;10.60;99.90;;;;;;4943382;28;39867;-75
2023/11/09 03:06:49;;;;;;;10.82;5.40;;;10.60;99.90;;;;;;4951724;28;37127;-75
2023/11/09 03:09:18;;;;;;;10.43;5.80;;;10.60;99.90;;;;;;4950384;28;39268;-75
2023/11/09 03:11:44;;;;;;;10.13;5.07;;;10.60;99.90;;;;;;4964653;28;38614;-76
2023/11/09 03:14:10;;;;;;;8.75;6.28;;;10.60;99.90;;;;;;4950285;28;37442;-76
2023/11/09 03:16:37;;;;;;;9.05;5.53;;;10.60;99.90;;;;;;4950204;28;38586;-75
2023/11/09 03:19:03;;;;;;;7.27;5.40;;;10.60;99.90;;;;;;4963631;28;37951;-76
2023/11/09 03:21:29;;;;;;;20.30;6.43;;;10.60;99.90;;;;;;4956873;28;39514;-75
2023/11/09 03:23:56;;;;;;;14.53;5.97;;;10.60;99.90;;;;;;4948265;28;39224;-75
2023/11/09 03:26:22;;;;;;;10.52;5.25;;;10.60;99.90;;;;;;4947769;28;39824;-76
2023/11/09 03:28:48;;;;;;;10.33;4.50;;;10.60;99.90;;;;;;4956107;28;37884;-76
2023/11/09 03:31:14;;;;;;;10.77;3.57;;;10.60;99.90;;;;;;4943040;28;40033;-76
2023/11/09 03:33:40;;;;;;;7.75;2.83;;;10.60;99.90;;;;;;4951832;28;37131;-76
2023/11/09 03:36:07;;;;;;;12.83;4.00;;;10.50;99.90;;;;;;4947379;28;36988;-76
2023/11/09 03:38:33;;;;;;;9.43;2.93;;;10.50;99.90;;;;;;4953922;28;38645;-75
2023/11/09 03:40:59;;;;;;;14.23;3.33;;;10.60;99.90;;;;;;4947287;28;40220;-75
2023/11/09 03:43:25;;;;;;;8.10;3.03;;;10.50;99.90;;;;;;4969986;28;38511;-77
2023/11/09 03:45:51;;;;;;;13.27;3.87;;;10.50;99.90;;;;;;4967197;28;39773;-76
2023/11/09 03:48:19;;;;;;;15.57;4.00;;;10.50;99.90;;;;;;4968445;28;37330;-77
2023/11/09 03:50:45;;;;;;;14.80;3.77;;;10.50;99.90;;;;;;4968941;28;39214;-77
2023/11/09 03:53:11;;;;;;;13.80;4.25;;;10.50;99.90;;;;;;4947836;28;38760;-77
2023/11/09 03:55:37;;;;;;;16.33;5.37;;;10.50;99.90;;;;;;4961342;28;39162;-76
2023/11/09 03:58:04;;;;;;;10.37;3.77;;;10.50;99.90;;;;;;4943196;28;38015;-78
2023/11/09 04:00:30;;;;;;;11.27;4.20;;;10.50;99.90;;;;;;4951310;28;40638;-77
2023/11/09 04:02:56;;;;;;;10.47;4.13;;;10.50;99.90;;;;;;4951809;28;39217;-76
2023/11/09 04:05:22;;;;;;;11.37;4.57;;;10.50;99.90;;;;;;4949557;28;39803;-77
2023/11/09 04:07:48;;;;;;;15.50;5.80;;;10.50;99.90;;;;;;4963277;28;37946;-77
2023/11/09 04:10:16;;;;;;;20.57;7.33;;;10.50;99.90;;;;;;4947096;28;39494;-77
2023/11/09 04:12:43;;;;;;;16.93;6.47;;;10.50;99.90;;;;;;4948730;28;38193;-75
2023/11/09 04:15:10;;;;;;;12.87;5.67;;;10.50;99.90;;;;;;4967486;28;38610;-75
2023/11/09 04:17:37;;;;;;;18.87;6.33;;;10.50;99.90;;;;;;4944554;28;37420;-75
2023/11/09 04:20:05;;;;;;;17.30;5.55;;;10.60;99.90;;;;;;4947076;28;39643;-75
2023/11/09 04:22:31;;;;;;;10.20;5.37;;;10.50;99.90;;;;;;4949410;28;47256;-75
2023/11/09 04:24:57;;;;;;;11.20;5.40;;;10.60;99.90;;;;;;4952699;28;38708;-75
2023/11/09 04:27:23;;;;;;;16.40;6.20;;;10.50;99.90;;;;;;4949763;28;38066;-75
2023/11/09 04:29:49;;;;;;;14.73;5.53;;;10.60;99.90;;;;;;4965451;28;39693;-76
2023/11/09 04:32:18;;;;;;;10.57;4.93;;;10.50;99.90;;;;;;4945422;28;38734;-76
2023/11/09 04:34:46;;;;;;;15.60;6.63;;;10.50;99.90;;;;;;4962122;28;38530;-75
2023/11/09 04:37:13;;;;;;;19.90;6.43;;;10.60;99.90;;;;;;4948612;28;37412;-76
2023/11/09 04:39:50;;;;;;;15.03;6.17;;;10.60;99.90;;;;;;4950003;28;39243;-76
2023/11/09 04:42:19;;;;;;;19.57;5.77;;;10.60;99.90;;;;;;4960513;28;38322;-76
2023/11/09 04:44:46;;;;;;;13.60;5.47;;;10.60;99.90;;;;;;4942987;28;36836;-76
2023/11/09 04:47:14;;;;;;;16.20;6.50;;;10.60;99.90;;;;;;4952535;28;38103;-76
2023/11/09 04:49:47;;;;;;;13.43;5.43;;;10.60;99.90;;;;;;4965987;28;39482;-76
2023/11/09 04:52:15;;;;;;;16.10;6.07;;;10.60;99.90;;;;;;4951849;28;39182;-77
2023/11/09 04:54:56;;;;;;;14.80;5.80;;;10.60;99.90;;;;;;4949435;28;38548;-76
2023/11/09 05:08:32;;;;;;;17.30;6.20;;;10.50;99.90;;;;;;4962573;28;49107;-76
2023/11/09 05:10:58;;;;;;;16.97;6.70;;;10.50;99.90;;;;;;4947364;28;40653;-76
2023/11/09 05:13:24;;;;;;;16.57;5.90;;;10.50;99.90;;;;;;4944284;28;39473;-76
2023/11/09 05:15:50;;;;;;;25.77;8.17;;;10.50;99.90;;;;;;4943816;28;39023;-76
2023/11/09 05:18:18;;;;;;;13.73;5.30;;;10.50;99.90;;;;;;4944442;28;38318;-75
2023/11/09 05:20:44;;;;;;;11.57;5.07;;;10.50;99.90;;;;;;4952302;28;37848;-76
2023/11/09 05:23:10;;;;;;;20.37;6.43;;;10.50;99.90;;;;;;4953896;28;39428;-77
2023/11/09 05:25:37;;;;;;;15.20;5.90;;;10.40;99.90;;;;;;4946166;28;38865;-77
2023/11/09 05:28:04;;;;;;;18.60;6.37;;;10.40;99.90;;;;;;4963606;28;40270;-78
2023/11/09 05:30:33;;;;;;;18.73;5.80;;;10.40;99.90;;;;;;4950117;28;39583;-78
2023/11/09 05:33:00;;;;;;;17.73;6.63;;;10.40;99.90;;;;;;4966477;28;38663;-77
2023/11/09 05:35:27;;;;;;;15.33;6.03;;;10.30;99.90;;;;;;4953695;28;37077;-77
2023/11/09 05:37:55;;;;;;;17.23;6.10;;;10.30;99.90;;;;;;4969496;28;37101;-77
2023/11/09 05:40:22;;;;;;;12.33;5.43;;;10.30;99.90;;;;;;4951328;28;39171;-77
2023/11/09 05:42:48;;;;;;;22.73;6.50;;;10.20;99.90;;;;;;4965644;28;38577;-77
2023/11/09 05:45:15;;;;;;;11.37;5.13;;;10.20;99.90;;;;;;4951281;28;38571;-78
2023/11/09 05:47:41;;;;;;;15.87;6.50;;;10.10;99.90;;;;;;4949659;28;35246;-77
2023/11/09 05:50:08;;;;;;;19.33;5.53;;;10.10;99.90;;;;;;4945482;28;41081;-78
2023/11/09 05:52:35;;;;;;;20.00;5.63;;;10.00;99.90;;;;;;4948620;28;38767;-77
2023/11/09 05:55:04;;;;;;;14.53;5.33;;;10.00;99.90;;;;;;4944883;28;37343;-76
2023/11/09 05:57:31;;;;;;;17.90;5.73;;;9.90;99.90;;;;;;4955343;28;38634;-77
2023/11/09 05:59:57;;;;;;;17.23;5.97;;;9.90;99.90;;;;;;4944559;28;38632;-76
2023/11/09 06:02:23;;;;;;;16.93;5.40;;;9.80;99.90;;;;;;4945120;28;39631;-77
2023/11/09 06:04:50;;;;;;;21.40;5.57;;;9.80;99.90;;;;;;4948178;28;38301;-77
2023/11/09 06:07:16;;;;;;;21.60;6.07;;;9.70;99.90;;;;;;4951677;28;37512;-77
2023/11/09 06:09:43;;;;;;;26.87;7.20;;;9.70;99.90;;;;;;4942011;28;39225;-76
2023/11/09 06:12:09;;;;;;;16.97;4.87;;;9.60;99.90;;;;;;4960065;28;38002;-76
2023/11/09 06:14:37;;;;;;;14.20;4.50;;;9.60;99.90;;;;;;4969637;28;38794;-77
2023/11/09 06:17:03;;;;;;;22.23;5.63;;;9.60;99.90;;;;;;4959029;28;37167;-75
2023/11/09 06:19:29;;;;;;;19.07;4.33;;;9.50;99.90;;;;;;4951209;28;39459;-75
2023/11/09 06:21:57;;;;;;;11.53;4.33;;;9.50;99.90;;;;;;4962852;28;38550;-76
2023/11/09 06:24:23;;;;;;;13.50;4.60;;;9.40;99.90;;;;;;4947955;28;36927;-75
2023/11/09 06:26:51;;;;;;;20.07;4.90;;;9.30;99.90;;;;;;4970844;28;37485;-75
2023/11/09 06:29:18;;;;;;;21.70;4.43;;;9.30;99.90;;;;;;4944994;28;40564;-76
2023/11/09 06:31:44;;;;;;;10.43;3.43;;;9.20;99.90;;;;;;4953525;28;38942;-76
2023/11/09 06:34:14;;;;;;;18.83;5.40;;;9.10;99.90;;;;;;4953083;28;38859;-76
2023/11/09 06:36:45;;;;;;;20.03;4.97;;;9.10;99.90;;;;;;4943924;28;37578;-76
2023/11/09 06:39:16;;;;;;;12.80;4.27;;;9.00;99.90;;;;;;4958039;28;38064;-76
2023/11/09 06:41:43;;;;;;;20.73;5.53;;;8.90;99.90;;;;;;4950779;28;37744;-75
2023/11/09 06:44:09;;;;;;;14.23;4.40;;;8.90;99.90;;;;;;4970480;28;38407;-75
2023/11/09 06:46:38;;;;;;;26.67;5.43;;;8.90;99.90;;;;;;4949205;28;36326;-75
2023/11/09 06:49:08;;;;;;;14.80;5.03;;;8.80;99.90;;;;;;4949203;28;37371;-75
2023/11/09 06:51:34;;;;;;;26.17;6.50;;;8.80;99.90;;;;;;4959958;28;39087;-75
2023/11/09 06:54:05;;;;;;;16.97;4.63;;;8.80;99.90;;;;;;4948848;28;36693;-75
2023/11/09 06:56:32;;;;;;;15.73;4.60;;;8.70;99.90;;;;;;4945045;28;47307;-75
2023/11/09 06:58:59;;;;;;;21.93;5.17;;;8.70;99.90;;;;;;4971559;28;38297;-75
2023/11/09 07:01:26;;;;;;;15.27;5.03;;;8.60;99.90;;;;;;4970940;28;37838;-75
2023/11/09 07:03:52;;;;;;;22.87;5.67;;;8.60;99.90;;;;;;4969978;28;38254;-75
2023/11/09 07:06:19;;;;;;;13.57;3.97;;;8.60;99.90;;;;;;4970306;28;38369;-75
2023/11/09 07:08:45;;;;;;;15.97;4.13;;;8.60;99.90;;;;;;4952849;28;37615;-75
2023/11/09 07:11:12;;;;;;;21.13;6.20;;;8.70;99.90;;;;;;4972311;28;39103;-75
2023/11/09 07:13:39;;;;;;;20.00;5.33;;;8.70;99.90;;;;;;4953758;28;37740;-75
2023/11/09 07:16:07;;;;;;;15.53;5.83;;;8.70;99.90;;;;;;4950112;28;36235;-76
2023/11/09 07:18:34;;;;;;;23.13;6.10;;;8.70;99.90;;;;;;4951726;28;37914;-76
2023/11/09 07:21:02;;;;;;;15.63;6.10;;;8.70;99.90;;;;;;4950773;28;37096;-75
2023/11/09 07:23:28;;;;;;;30.10;6.33;;;8.70;99.90;;;;;;4965464;28;48606;-75
2023/11/09 07:25:55;;;;;;;26.13;7.47;;;8.70;99.90;;;;;;4957543;28;36116;-75
2023/11/09 07:28:21;;;;;;;19.43;5.17;;;8.80;99.90;;;;;;4947319;28;37618;-76
2023/11/09 07:30:48;;;;;;;16.60;5.37;;;8.80;99.90;;;;;;4951056;28;36785;-75
2023/11/09 07:33:15;;;;;;;26.70;6.40;;;8.90;99.90;;;;;;4946992;28;37333;-75
2023/11/09 07:35:44;;;;;;;22.60;4.43;;;8.90;99.90;;;;;;4944019;28;36144;-74
2023/11/09 07:38:14;;;;;;;17.43;4.40;;;9.00;99.90;;;;;;4959638;28;38914;-75
2023/11/09 07:40:41;;;;;;;21.53;4.93;;;9.00;99.90;;;;;;4949619;28;37233;-75
2023/11/09 07:43:09;;;;;;;21.20;5.30;;;9.10;99.90;;;;;;4956050;28;38082;-75
2023/11/09 07:45:36;;;;;;;25.33;5.53;;;9.10;99.90;;;;;;4941741;28;36135;-75
2023/11/09 07:48:06;;;;;;;20.70;4.73;;;9.10;99.90;;;;;;4951968;28;37984;-76
2023/11/09 07:50:33;;;;;;;29.30;6.97;;;9.20;99.90;;;;;;4966734;28;38355;-75
2023/11/09 07:53:00;;;;;;;19.03;5.50;;;9.30;99.90;;;;;;4951172;28;37000;-75
2023/11/09 07:55:30;;;;;;;23.40;5.80;;;9.40;99.90;;;;;;4969320;28;47248;-75
2023/11/09 07:58:02;;;;;;;27.27;6.33;;;9.50;99.90;;;;;;4967009;28;38648;-75
2023/11/09 08:00:29;;;;;;;;;;;9.50;99.90;;;;;;4971481;28;49566;-75
2023/11/09 08:02:58;;;;;;;30.10;6.83;;;9.60;99.90;;;;;;4950211;28;39822;-76
2023/11/09 08:05:25;;;;;;;21.93;6.07;;;9.60;99.90;;;;;;4950439;28;36707;-75
2023/11/09 08:07:54;;;;;;;23.83;6.20;;;9.60;99.90;;;;;;4966377;28;38682;-75
2023/11/09 08:10:22;;;;;;;37.60;6.50;;;9.60;99.90;;;;;;4967234;28;38439;-75
2023/11/09 08:12:48;;;;;;;26.37;7.40;;;9.60;99.90;;;;;;4951039;28;37028;-76
2023/11/09 08:15:18;;;;;;;27.70;6.27;;;9.60;99.90;;;;;;4967654;28;38054;-75
2023/11/09 08:17:45;;;;;;;24.83;6.83;;;9.60;99.90;;;;;;4973904;28;39686;-75
2023/11/09 08:20:15;;;;;;;25.53;6.73;;;9.60;99.90;;;;;;4945042;28;37273;-76
2023/11/09 08:22:46;;;;;;;25.53;6.27;;;9.70;99.90;;;;;;4949465;28;37020;-75
2023/11/09 08:25:14;;;;;;;18.60;5.63;;;9.70;99.90;;;;;;4951037;28;35976;-75
2023/11/09 08:27:41;;;;;;;19.47;5.70;;;9.70;99.90;;;;;;4956147;28;37614;-76
2023/11/09 08:30:09;;;;;;;23.30;5.60;;;9.70;99.90;;;;;;4952717;28;37389;-76
2023/11/09 08:32:40;;;;;;;34.30;7.23;;;9.70;99.90;;;;;;4967281;28;38433;-75
2023/11/09 08:35:10;;;;;;;23.80;5.60;;;9.80;99.90;;;;;;4964298;28;37052;-76
2023/11/09 08:37:42;;;;;;;23.40;6.20;;;9.80;99.90;;;;;;4949397;28;37853;-76
2023/11/09 08:40:17;;;;;;;29.42;6.72;;;9.80;99.90;;;;;;4965480;28;39124;-77
2023/11/09 08:42:48;;;;;;;23.30;5.03;;;9.80;99.90;;;;;;4951767;28;38530;-76
2023/11/09 08:45:17;;;;;;;25.23;5.40;;;9.90;99.90;;;;;;4953254;28;36141;-76
2023/11/09 08:47:48;;;;;;;17.83;4.83;;;9.90;99.90;;;;;;4951924;28;37850;-77
2023/11/09 08:50:16;;;;;;;29.83;5.97;;;9.90;99.90;;;;;;4954699;28;38922;-75
2023/11/09 08:52:43;;;;;;;21.97;4.67;;;9.90;99.90;;;;;;4959799;28;38236;-76
2023/11/09 08:55:09;;;;;;;25.63;4.70;;;9.80;99.90;;;;;;4952993;28;36964;-75
2023/11/09 08:57:37;;;;;;;28.73;5.30;;;9.90;99.90;;;;;;4958156;28;38443;-75
2023/11/09 09:00:11;;;;;;;27.00;5.23;;;9.90;99.90;;;;;;4945005;28;38984;-75
2023/11/09 09:02:48;;;;;;;22.90;4.70;;;9.90;99.90;;;;;;4958382;28;38437;-75
2023/11/09 09:05:19;;;;;;;25.20;5.77;;;9.80;99.90;;;;;;4955861;28;38185;-75
2023/11/09 09:07:46;;;;;;;25.13;5.30;;;9.90;99.90;;;;;;4948843;28;39574;-75
2023/11/09 09:10:15;;;;;;;25.33;5.30;;;9.80;99.90;;;;;;4961078;28;38665;-76
2023/11/09 09:12:46;;;;;;;24.27;5.33;;;9.80;99.90;;;;;;4962933;28;38621;-75
2023/11/09 09:15:15;;;;;;;28.10;5.93;;;9.90;99.90;;;;;;4950570;28;39109;-75
2023/11/09 09:17:42;;;;;;;33.37;5.27;;;9.90;99.90;;;;;;4968517;28;38641;-76
2023/11/09 09:20:13;;;;;;;23.77;5.13;;;9.90;99.90;;;;;;4952877;28;39262;-76
2023/11/09 09:22:39;;;;;;;31.70;5.13;;;10.00;99.90;;;;;;4954121;28;38156;-76
2023/11/09 09:25:14;;;;;;;20.87;4.93;;;10.00;99.90;;;;;;4951111;28;39190;-76
2023/11/09 09:27:48;;;;;;;25.87;5.50;;;10.10;99.90;;;;;;4950661;28;39844;-75
2023/11/09 09:30:18;;;;;;;22.87;5.27;;;10.10;99.90;;;;;;4952741;28;38729;-76
2023/11/09 09:32:46;;;;;;;24.80;6.13;;;10.20;99.90;;;;;;4954578;28;38802;-74
2023/11/09 09:35:12;;;;;;;29.97;6.60;;;10.20;99.90;;;;;;4969685;28;37096;-77
2023/11/09 09:37:39;;;;;;;32.07;5.80;;;10.30;99.90;;;;;;4951308;28;37800;-74
2023/11/09 09:40:15;;;;;;;29.83;5.83;;;10.40;99.90;;;;;;4950082;28;40299;-75
2023/11/09 09:42:50;;;;;;;19.47;5.40;;;10.50;99.90;;;;;;4949192;28;37335;-75
2023/11/09 09:45:27;;;;;;;24.73;5.27;;;10.60;99.90;;;;;;4965724;28;37691;-75
2023/11/09 09:48:03;;;;;;;30.13;6.77;;;10.60;99.90;;;;;;4950950;28;38213;-75
2023/11/09 09:50:37;;;;;;;24.90;6.00;;;10.70;99.90;;;;;;4964165;28;47987;-75
2023/11/09 09:53:08;;;;;;;23.67;5.37;;;10.70;99.90;;;;;;4964394;28;37777;-76
2023/11/09 09:55:35;;;;;;;18.27;5.57;;;10.70;99.90;;;;;;4959930;28;37642;-75
2023/11/09 09:58:01;;;;;;;20.90;5.87;;;10.70;99.90;;;;;;4962715;28;39358;-75
2023/11/09 10:00:27;;;;;;;25.90;5.40;;;10.70;99.90;;;;;;4943818;28;47343;-75
2023/11/09 10:02:57;;;;;;;20.53;5.77;;;10.80;99.90;;;;;;4967930;28;38050;-75
2023/11/09 10:05:25;;;;;;;26.23;5.22;;;10.80;99.90;;;;;;4946372;28;36579;-75
2023/11/09 10:08:07;;;;;;;19.83;5.40;;;10.80;99.90;;;;;;4968757;28;38930;-74
2023/11/09 10:10:44;;;;;;;21.50;5.00;;;10.90;99.90;;;;;;4964370;28;48968;-75
2023/11/09 10:13:13;;;;;;;23.23;5.18;;;10.90;99.90;;;;;;4968408;28;38295;-75
2023/11/09 10:15:41;;;;;;;19.17;4.97;;;11.00;99.90;;;;;;4967476;28;36737;-75
2023/11/09 10:18:12;;;;;;;22.23;5.40;;;11.00;99.90;;;;;;4947907;28;38058;-76
2023/11/09 10:20:40;;;;;;;21.95;4.68;;;11.00;99.90;;;;;;4970209;28;37868;-75
2023/11/09 10:23:11;;;;;;;17.83;4.90;;;11.00;99.90;;;;;;4969622;28;38507;-75
2023/11/09 10:25:41;;;;;;;15.25;4.28;;;10.90;99.90;;;;;;4950235;28;35940;-75
2023/11/09 10:28:11;;;;;;;16.20;4.20;;;11.00;99.90;;;;;;4968186;28;39156;-76
2023/11/09 10:30:40;;;;;;;20.07;3.93;;;11.00;99.90;;;;;;4967625;28;38644;-76
2023/11/09 10:33:11;;;;;;;23.13;4.70;;;11.10;99.90;;;;;;4964970;28;37778;-75
2023/11/09 10:35:39;;;;;;;17.73;4.97;;;11.10;99.90;;;;;;4952739;28;36483;-75
2023/11/09 10:38:09;;;;;;;17.97;3.70;;;11.10;99.90;;;;;;4972232;28;39368;-75
2023/11/09 10:40:36;;;;;;;16.57;4.37;;;11.10;99.90;;;;;;4957186;28;39603;-76
2023/11/09 10:43:06;;;;;;;18.67;5.03;;;11.10;99.90;;;;;;4943355;28;37306;-76
2023/11/09 10:45:42;;;;;;;20.93;4.63;;;11.20;99.90;;;;;;4939198;28;38201;-75
2023/11/09 10:48:10;;;;;;;20.13;3.87;;;11.20;99.90;;;;;;4945335;28;37891;-75
2023/11/09 10:50:49;;;;;;;15.47;4.30;;;11.20;99.90;;;;;;4949741;28;38789;-76
2023/11/09 10:53:18;;;;;;;22.98;4.90;;;11.20;99.90;;;;;;4969771;28;38597;-75
2023/11/09 10:55:49;;;;;;;17.75;4.05;;;11.20;99.90;;;;;;4967365;28;38382;-75
2023/11/09 10:58:20;;;;;;;19.35;4.70;;;11.20;99.90;;;;;;4952069;28;39205;-75
2023/11/09 11:00:58;;;;;;;28.27;4.97;;;11.20;99.90;;;;;;4968018;28;38514;-76
2023/11/09 11:03:51;;;;;;;13.63;3.95;;;11.20;99.90;;;;;;4966919;28;38964;-75
2023/11/09 11:06:42;;;;;;;14.98;4.15;;;11.30;99.90;;;;;;4945142;28;36962;-75
2023/11/09 11:09:18;;;;;;;28.27;5.53;;;11.30;99.90;;;;;;4965745;28;39496;-75
2023/11/09 11:11:49;;;;;;;18.47;5.17;;;11.30;99.90;;;;;;4952386;28;38164;-76
2023/11/09 11:14:19;;;;;;;19.60;3.85;;;11.40;99.90;;;;;;4948974;28;37366;-76
2023/11/09 11:16:57;;;;;;;14.57;3.25;;;11.40;99.90;;;;;;4963631;28;37005;-75
2023/11/09 11:19:35;;;;;;;16.67;3.22;;;11.40;99.90;;;;;;4962019;28;38871;-75
2023/11/09 11:22:10;;;;;;;15.25;3.10;;;11.30;99.90;;;;;;4952141;28;37577;-76
2023/11/09 11:25:06;;;;;;;14.60;2.88;;;11.40;99.90;;;;;;4940017;28;47161;-73
2023/11/09 11:27:51;;;;;;;22.15;3.58;;;11.40;99.90;;;;;;4955778;28;48779;-74
2023/11/09 11:30:27;;;;;;;16.48;3.63;;;11.40;99.90;;;;;;4968102;28;40084;-74
2023/11/09 11:32:58;;;;;;;17.40;3.40;;;11.40;99.90;;;;;;4968082;28;38297;-74
2023/11/09 11:35:48;;;;;;;24.10;4.20;;;11.40;99.90;;;;;;4948448;28;38660;-74
2023/11/09 11:38:15;;;;;;;18.70;2.88;;;11.40;99.90;;;;;;4966299;28;38371;-75
2023/11/09 11:40:43;;;;;;;19.67;3.65;;;11.40;99.90;;;;;;4971035;28;40197;-75
2023/11/09 11:43:11;;;;;;;23.52;3.40;;;11.40;99.90;;;;;;4969767;28;39259;-75
2023/11/09 11:45:41;;;;;;;20.40;3.83;;;11.40;99.90;;;;;;4948892;28;37046;-75
2023/11/09 11:48:19;;;;;;;18.65;3.00;;;11.50;99.90;;;;;;4965458;28;37066;-76
2023/11/09 11:50:49;;;;;;;17.67;4.13;;;11.40;99.90;;;;;;4967405;28;38308;-75
2023/11/09 11:53:28;;;;;;;20.47;3.50;;;11.40;99.90;;;;;;4951477;28;38682;-74
2023/11/09 11:56:10;;;;;;;15.57;3.08;;;11.50;99.90;;;;;;4950659;28;36077;-75
2023/11/09 11:58:52;;;;;;;26.23;4.57;;;11.40;99.90;;;;;;4947736;28;47242;-75
2023/11/09 12:01:23;;;;;;;22.42;3.63;;;11.40;99.90;;;;;;4949757;28;38554;-75
2023/11/09 12:03:56;;;;;;;19.57;3.67;;;11.50;99.90;;;;;;4946669;28;37380;-75
2023/11/09 12:06:27;;;;;;;22.25;4.15;;;11.40;99.90;;;;;;4951951;28;38313;-75
2023/11/09 12:08:58;;;;;;;17.45;3.35;;;11.50;99.90;;;;;;4952372;28;37585;-75
2023/11/09 12:11:26;;;;;;;15.25;3.83;;;11.50;99.90;;;;;;4949353;28;37654;-75
2023/11/09 12:13:56;;;;;;;23.53;3.90;;;11.50;99.90;;;;;;4946782;28;37635;-76
2023/11/09 12:16:25;;;;;;;24.07;4.90;;;11.50;99.90;;;;;;4965978;28;38078;-76
2023/11/09 12:18:53;;;;;;;22.50;5.07;;;11.50;99.90;;;;;;4950564;28;37170;-76
2023/11/09 12:21:20;;;;;;;26.98;6.75;;;11.50;99.90;;;;;;4964429;28;38991;-76
2023/11/09 12:23:51;;;;;;;24.00;5.73;;;11.50;99.90;;;;;;4949872;28;37578;-76
2023/11/09 12:26:19;;;;;;;24.07;4.17;;;11.50;99.90;;;;;;4947350;28;37536;-77
2023/11/09 12:28:48;;;;;;;26.17;5.47;;;11.50;99.90;;;;;;4966051;28;37173;-77
2023/11/09 12:31:19;;;;;;;15.60;4.03;;;11.60;99.90;;;;;;4968223;28;39613;-77
2023/11/09 12:34:09;;;;;;;18.60;4.10;;;11.60;99.90;;;;;;4952721;28;38974;-76
2023/11/09 12:36:41;;;;;;;18.42;3.90;;;11.60;99.90;;;;;;4948321;28;47301;-77
2023/11/09 12:41:52;;;;;;;20.77;3.80;;;11.60;99.90;;;;;;4965159;28;38970;-77
2023/11/09 12:44:35;;;;;;;23.08;4.60;;;11.60;99.90;;;;;;4952216;28;37362;-76
2023/11/09 12:47:04;;;;;;;23.20;3.90;;;11.70;99.90;;;;;;4949574;28;37432;-76
2023/11/09 12:49:31;;;;;;;18.63;3.20;;;11.70;99.90;;;;;;4950368;28;47264;-76
2023/11/09 12:51:59;;;;;;;18.27;4.03;;;11.60;99.90;;;;;;4952552;28;38237;-78
2023/11/09 12:54:26;;;;;;;19.80;3.67;;;11.70;99.90;;;;;;4969575;28;38057;-76
2023/11/09 12:56:56;;;;;;;17.23;3.20;;;11.70;99.90;;;;;;4967770;28;39131;-76
2023/11/09 12:59:28;;;;;;;22.15;4.53;;;11.70;99.90;;;;;;4969827;28;37441;-76
2023/11/09 13:01:56;;;;;;;19.02;3.80;;;11.80;99.90;;;;;;4962681;28;40003;-76
2023/11/09 13:04:29;;;;;;;21.35;3.85;;;11.80;99.90;;;;;;4970557;28;38621;-77